Sydney, Sydney Kingsford Smith Airport (YSSY)

NameSydney Kingsford Smith Airport
CitySydney
CountryAustralia
ICAOYSSY
IATASYD
Altitude21 feet
CoordinatesGoogle Map
Live Air TrafficLiveATC.net
METARYSSY 230730Z 03009KT CAVOK 16/08 Q1024
2024-07-23 07:30:00 Wind: North-Northeast (30°) 4.63 m/s - Visibility: > 10000 m - Weather: CAVOK - Temperature: 16 °C - Dew point: 8 °C - Humidity: 59.3% - Pressure: 1024 hPa

Sorry, no flights used the airport in this database.